Flight Track Log - Related Links

Times and Time Zones

All times are in EST time to prevent confusion due to time zone crossing. See the FIN667 flight status page for this flight to view local times or setup timezone preferences in your user account.

Time Position Orientation Groundspeed Altitude Reporting Facility
EST Latitude Longitude Course Direction KTS MPH feet Rate Location/Type
Sun 11:14:00 AM 60.1730 24.4723 240° Southwest  Level Estimated
Sun 11:15:00 AM 60.1245 24.3096 239° Southwest  Level Estimated
Sun 11:16:00 AM 60.0758 24.1473 239° Southwest  Level Estimated
Sun 11:17:00 AM 60.0232 23.9733 239° Southwest  Level Estimated
Sun 11:18:00 AM 59.9703 23.7998 239° Southwest  Level Estimated
Sun 11:19:00 AM 59.9173 23.6269 239° Southwest  Level Estimated
Sun 11:20:00 AM 59.8640 23.4545 238° Southwest  Level Estimated
Sun 11:21:00 AM 59.8105 23.2827 238° Southwest  Level Estimated
Sun 11:22:00 AM 59.7567 23.1114 238° Southwest  Level Estimated
Sun 11:23:00 AM 59.7028 22.9407 238° Southwest  Level Estimated
Sun 11:24:00 AM 59.6486 22.7706 238° Southwest  Level Estimated
Sun 11:25:00 AM 59.5942 22.6010 238° Southwest  Level Estimated
Sun 11:26:00 AM 59.5396 22.4319 238° Southwest  Level Estimated
Sun 11:27:00 AM 59.4847 22.2634 237° Southwest  Level Estimated
Sun 11:28:00 AM 59.4297 22.0954 237° Southwest  Level Estimated
Sun 11:29:00 AM 59.3744 21.9280 237° Southwest  Level Estimated
Sun 11:30:00 AM 59.3190 21.7611 237° Southwest  Level Estimated
Sun 11:31:00 AM 59.2633 21.5948 237° Southwest  Level Estimated
Sun 11:32:00 AM 59.2074 21.4290 237° Southwest  Level Estimated
Sun 11:33:00 AM 59.1512 21.2638 237° Southwest  Level Estimated
Sun 11:34:00 AM 59.0949 21.0991 236° Southwest  Level Estimated
Sun 11:35:00 AM 59.0384 20.9349 236° Southwest  Level Estimated
Sun 11:36:00 AM 58.9817 20.7713 236° Southwest  Level Estimated
Sun 11:37:00 AM 58.9247 20.6082 236° Southwest  Level Estimated
Sun 11:38:00 AM 58.8676 20.4457 236° Southwest  Level Estimated
Sun 11:39:00 AM 58.8102 20.2836 236° Southwest  Level Estimated
Sun 11:40:00 AM 58.7527 20.1222 236° Southwest  Level Estimated
Sun 11:41:00 AM 58.6949 19.9612 235° Southwest  Level Estimated
Sun 11:42:00 AM 58.6370 19.8008 235° Southwest  Level Estimated
Sun 11:43:00 AM 58.5788 19.6410 235° Southwest  Level Estimated
Sun 11:44:00 AM 58.5205 19.4816 235° Southwest  Level Estimated
Sun 11:45:00 AM 58.4619 19.3228 235° Southwest  Level Estimated
Sun 11:46:00 AM 58.4032 19.1645 235° Southwest  Level Estimated
Sun 11:47:00 AM 58.3442 19.0068 235° Southwest  Level Estimated
Sun 11:48:00 AM 58.2851 18.8496 234° Southwest  Level Estimated
Sun 11:49:00 AM 58.2258 18.6929 234° Southwest  Level Estimated
Sun 11:50:00 AM 58.1663 18.5367 234° Southwest  Level Estimated
Sun 11:51:00 AM 58.1066 18.3810 234° Southwest  Level Estimated
Sun 11:52:00 AM 58.0467 18.2259 234° Southwest  Level Estimated
Sun 11:53:00 AM 57.9866 18.0713 234° Southwest  Level Estimated
Sun 11:54:00 AM 57.9263 17.9172 234° Southwest  Level Estimated
Sun 11:55:00 AM 57.8659 17.7636 234° Southwest  Level Estimated
Sun 11:56:00 AM 57.8052 17.6105 233° Southwest  Level Estimated
Sun 11:57:00 AM 57.7444 17.4580 233° Southwest  Level Estimated
Sun 11:58:00 AM 57.6834 17.3060 233° Southwest  Level Estimated
Sun 11:59:00 AM 57.6222 17.1544 233° Southwest  Level Estimated
Sun 12:00:00 PM 57.5609 17.0034 233° Southwest  Level Estimated
Sun 12:01:00 PM 57.4993 16.8529 233° Southwest  Level Estimated
Sun 12:02:00 PM 57.4376 16.7029 233° Southwest  Level Estimated
Sun 12:03:00 PM 57.3757 16.5534 233° Southwest  Level Estimated
Sun 12:04:00 PM 57.3136 16.4045 232° Southwest  Level Estimated
Sun 12:05:00 PM 57.2514 16.2560 232° Southwest  Level Estimated
Sun 12:06:00 PM 57.1889 16.1080 232° Southwest  Level Estimated
Sun 12:07:00 PM 57.1263 15.9605 232° Southwest  Level Estimated
Sun 12:08:00 PM 57.0635 15.8135 232° Southwest  Level Estimated
Sun 12:09:00 PM 57.0006 15.6671 232° Southwest  Level Estimated
Sun 12:10:00 PM 56.9375 15.5211 232° Southwest  Level Estimated
Sun 12:11:00 PM 56.8742 15.3756 232° Southwest  Level Estimated
Sun 12:12:00 PM 56.8107 15.2306 231° Southwest  Level Estimated
Sun 12:13:00 PM 56.7471 15.0861 231° Southwest  Level Estimated
Sun 12:14:00 PM 56.6833 14.9420 231° Southwest  Level Estimated
Sun 12:15:00 PM 56.6194 14.7985 231° Southwest  Level Estimated
Sun 12:16:00 PM 56.5552 14.6554 231° Southwest  Level Estimated
Sun 12:17:00 PM 56.4910 14.5129 231° Southwest  Level Estimated
Sun 12:18:00 PM 56.4265 14.3708 231° Southwest  Level Estimated
Sun 12:19:00 PM 56.3619 14.2292 231° Southwest  Level Estimated
Sun 12:20:00 PM 56.2971 14.0881 230° Southwest  Level Estimated
Sun 12:21:00 PM 56.2322 13.9474 230° Southwest  Level Estimated
Sun 12:22:00 PM 56.1671 13.8073 230° Southwest  Level Estimated
Sun 12:23:00 PM 56.1019 13.6676 230° Southwest  Level Estimated
Sun 12:24:00 PM 56.0365 13.5283 230° Southwest  Level Estimated
Sun 12:25:00 PM 55.9709 13.3896 230° Southwest  Level Estimated
Sun 12:26:00 PM 55.9052 13.2513 230° Southwest  Level Estimated
Sun 12:27:00 PM 55.8393 13.1135 230° Southwest  Level Estimated
Sun 12:28:00 PM 55.7733 12.9762 230° Southwest  Level Estimated
Sun 12:29:00 PM 55.7071 12.8393 229° Southwest  Level Estimated
Sun 12:30:00 PM 55.6373 12.6956 229° Southwest  Level Estimated
Sun 12:31:00 PM 55.6179 12.6560 229° Southwest  Level Estimated
Sun 12:32:00 PM 55.6179 12.6560 159° South  Level Estimated
Sun 12:33:00 PM 55.6179 12.6560 159° South  Level Estimated
Sun 12:34:00 PM 55.6179 12.6560 159° South  Level Estimated
Sun 12:35:00 PM 55.6179 12.6560 159° South  Level Estimated
Sun 12:36:00 PM 55.6179 12.6560 159° South  Level Estimated
Sun 12:37:00 PM 55.6179 12.6560 159° South  Level Estimated
Sun 12:38:00 PM 55.6179 12.6560 159° South  Level Estimated
Sun 12:39:00 PM 55.6179 12.6560 159° South  Level Estimated
Sun 12:40:00 PM 55.6179 12.6560 159° South  Level Estimated
Sun 12:41:00 PM 55.6179 12.6560 159° South  Level Estimated
Sun 12:42:00 PM 55.6179 12.6560 159° South  Level Estimated

Login

Don't have an account? Register now (free) for customized features, flight alerts, and more!